Terminal Aerodrome Forecast
Issued by NWS Twin Cities, MN

Home | Current Version | Previous Version | Graphics & Text | Print | Product List | Glossary On
Versions: 1 2 3 4 5 6 7 8 9 10 11 12 13 14 15 16 17 18 19 20 21 22 23 24 25 26 27 28
000
FTUS43 KMPX 050849 AAA
TAFMSP
TAF AMD
KMSP 050849Z 0509/0612 17007KT P6SM SKC
     FM051400 18011KT P6SM FEW250
     FM051700 18014G23KT P6SM SCT050 BKN250 PROB30 0521/0601 5SM
      TSRA OVC040CB
     FM060600 18012G18KT 6SM -TSRA BKN050CB BKN150
     FM060900 15012KT 3SM TSRA BKN020CB=

USA.gov is the U.S. government's official web portal to all federal, state and local government web resources and services.